sensor_id;sensor_type;location;lat;lon;timestamp;P1;durP1;ratioP1;P2;durP2;ratioP2
28836;SDS011;50669;50.982;11.022;2023-03-16T00:00:56;8.57;;;5.40;;
28836;SDS011;50669;50.982;11.022;2023-03-16T00:03:24;8.45;;;4.95;;
28836;SDS011;50669;50.982;11.022;2023-03-16T00:05:50;9.98;;;5.32;;
28836;SDS011;50669;50.982;11.022;2023-03-16T00:08:18;8.75;;;5.68;;
28836;SDS011;50669;50.982;11.022;2023-03-16T00:10:44;8.93;;;5.32;;
28836;SDS011;50669;50.982;11.022;2023-03-16T00:13:13;8.45;;;5.03;;
28836;SDS011;50669;50.982;11.022;2023-03-16T00:18:17;9.43;;;5.13;;
28836;SDS011;50669;50.982;11.022;2023-03-16T00:20:43;8.82;;;5.30;;
28836;SDS011;50669;50.982;11.022;2023-03-16T00:23:08;10.65;;;5.03;;
28836;SDS011;50669;50.982;11.022;2023-03-16T00:25:34;7.30;;;5.20;;
28836;SDS011;50669;50.982;11.022;2023-03-16T00:28:00;7.63;;;5.13;;
28836;SDS011;50669;50.982;11.022;2023-03-16T00:30:31;7.32;;;4.57;;
28836;SDS011;50669;50.982;11.022;2023-03-16T00:32:57;6.55;;;4.88;;
28836;SDS011;50669;50.982;11.022;2023-03-16T00:35:25;8.25;;;4.70;;
28836;SDS011;50669;50.982;11.022;2023-03-16T00:37:51;6.63;;;4.72;;
28836;SDS011;50669;50.982;11.022;2023-03-16T00:40:21;7.95;;;4.35;;
28836;SDS011;50669;50.982;11.022;2023-03-16T00:42:47;7.72;;;5.07;;
28836;SDS011;50669;50.982;11.022;2023-03-16T00:45:13;7.30;;;5.05;;
28836;SDS011;50669;50.982;11.022;2023-03-16T00:47:38;6.57;;;4.68;;
28836;SDS011;50669;50.982;11.022;2023-03-16T00:50:06;6.70;;;4.20;;
28836;SDS011;50669;50.982;11.022;2023-03-16T00:52:34;7.72;;;4.40;;
28836;SDS011;50669;50.982;11.022;2023-03-16T00:55:00;6.05;;;4.47;;
28836;SDS011;50669;50.982;11.022;2023-03-16T00:57:28;6.32;;;4.35;;
28836;SDS011;50669;50.982;11.022;2023-03-16T00:59:54;8.48;;;4.82;;
28836;SDS011;50669;50.982;11.022;2023-03-16T01:02:20;10.68;;;4.38;;
28836;SDS011;50669;50.982;11.022;2023-03-16T01:04:49;7.55;;;4.40;;
28836;SDS011;50669;50.982;11.022;2023-03-16T01:07:18;7.63;;;4.82;;
28836;SDS011;50669;50.982;11.022;2023-03-16T01:09:45;5.45;;;3.92;;
28836;SDS011;50669;50.982;11.022;2023-03-16T01:12:13;6.07;;;4.45;;
28836;SDS011;50669;50.982;11.022;2023-03-16T01:14:40;6.30;;;4.97;;
28836;SDS011;50669;50.982;11.022;2023-03-16T01:17:07;6.88;;;3.97;;
28836;SDS011;50669;50.982;11.022;2023-03-16T01:19:38;7.60;;;4.45;;
28836;SDS011;50669;50.982;11.022;2023-03-16T01:22:05;6.60;;;4.30;;
28836;SDS011;50669;50.982;11.022;2023-03-16T01:24:34;6.47;;;4.30;;
28836;SDS011;50669;50.982;11.022;2023-03-16T01:27:00;6.88;;;3.78;;
28836;SDS011;50669;50.982;11.022;2023-03-16T01:29:26;5.68;;;3.97;;
28836;SDS011;50669;50.982;11.022;2023-03-16T01:31:52;6.50;;;4.05;;
28836;SDS011;50669;50.982;11.022;2023-03-16T01:34:19;7.18;;;4.10;;
28836;SDS011;50669;50.982;11.022;2023-03-16T01:36:49;5.95;;;3.90;;
28836;SDS011;50669;50.982;11.022;2023-03-16T01:39:16;7.15;;;4.10;;
28836;SDS011;50669;50.982;11.022;2023-03-16T01:41:46;6.10;;;4.28;;
28836;SDS011;50669;50.982;11.022;2023-03-16T01:44:19;5.25;;;3.78;;
28836;SDS011;50669;50.982;11.022;2023-03-16T01:46:52;6.72;;;4.47;;
28836;SDS011;50669;50.982;11.022;2023-03-16T01:49:33;5.95;;;3.97;;
28836;SDS011;50669;50.982;11.022;2023-03-16T01:52:09;6.35;;;3.90;;
28836;SDS011;50669;50.982;11.022;2023-03-16T01:54:53;4.78;;;3.40;;
28836;SDS011;50669;50.982;11.022;2023-03-16T01:57:27;8.07;;;3.80;;
28836;SDS011;50669;50.982;11.022;2023-03-16T02:03:06;6.43;;;3.92;;
28836;SDS011;50669;50.982;11.022;2023-03-16T02:05:38;6.80;;;4.25;;
28836;SDS011;50669;50.982;11.022;2023-03-16T02:08:13;4.70;;;3.33;;
28836;SDS011;50669;50.982;11.022;2023-03-16T02:10:40;7.97;;;3.75;;
28836;SDS011;50669;50.982;11.022;2023-03-16T02:13:07;5.82;;;4.15;;
28836;SDS011;50669;50.982;11.022;2023-03-16T02:15:37;5.43;;;3.45;;
28836;SDS011;50669;50.982;11.022;2023-03-16T02:18:06;5.57;;;3.78;;
28836;SDS011;50669;50.982;11.022;2023-03-16T02:20:43;4.95;;;3.20;;
28836;SDS011;50669;50.982;11.022;2023-03-16T02:23:12;4.78;;;3.45;;
28836;SDS011;50669;50.982;11.022;2023-03-16T02:28:49;6.03;;;3.47;;
28836;SDS011;50669;50.982;11.022;2023-03-16T02:31:34;4.75;;;3.70;;
28836;SDS011;50669;50.982;11.022;2023-03-16T02:34:02;6.22;;;3.55;;
28836;SDS011;50669;50.982;11.022;2023-03-16T02:36:31;5.45;;;3.10;;
28836;SDS011;50669;50.982;11.022;2023-03-16T02:38:57;4.57;;;3.53;;
28836;SDS011;50669;50.982;11.022;2023-03-16T02:41:23;5.72;;;3.72;;
28836;SDS011;50669;50.982;11.022;2023-03-16T02:44:00;5.00;;;3.58;;
28836;SDS011;50669;50.982;11.022;2023-03-16T02:46:48;4.13;;;3.00;;
28836;SDS011;50669;50.982;11.022;2023-03-16T02:51:51;6.45;;;3.38;;
28836;SDS011;50669;50.982;11.022;2023-03-16T02:54:17;3.85;;;2.70;;
28836;SDS011;50669;50.982;11.022;2023-03-16T02:56:43;5.38;;;3.28;;
28836;SDS011;50669;50.982;11.022;2023-03-16T02:59:09;4.57;;;3.08;;
28836;SDS011;50669;50.982;11.022;2023-03-16T03:01:36;6.28;;;3.22;;
28836;SDS011;50669;50.982;11.022;2023-03-16T03:04:04;5.35;;;3.25;;
28836;SDS011;50669;50.982;11.022;2023-03-16T03:06:33;6.55;;;2.92;;
28836;SDS011;50669;50.982;11.022;2023-03-16T03:09:01;4.60;;;2.85;;
28836;SDS011;50669;50.982;11.022;2023-03-16T03:11:28;4.93;;;3.13;;
28836;SDS011;50669;50.982;11.022;2023-03-16T03:13:54;4.15;;;3.40;;
28836;SDS011;50669;50.982;11.022;2023-03-16T03:16:23;3.78;;;3.03;;
28836;SDS011;50669;50.982;11.022;2023-03-16T03:18:51;5.07;;;3.22;;
28836;SDS011;50669;50.982;11.022;2023-03-16T03:21:17;5.55;;;3.22;;
28836;SDS011;50669;50.982;11.022;2023-03-16T03:23:45;4.00;;;2.88;;
28836;SDS011;50669;50.982;11.022;2023-03-16T03:26:13;4.47;;;3.25;;
28836;SDS011;50669;50.982;11.022;2023-03-16T03:28:39;4.13;;;3.00;;
28836;SDS011;50669;50.982;11.022;2023-03-16T03:31:05;7.85;;;3.55;;
28836;SDS011;50669;50.982;11.022;2023-03-16T03:33:32;4.25;;;2.90;;
28836;SDS011;50669;50.982;11.022;2023-03-16T03:36:03;3.45;;;2.67;;
28836;SDS011;50669;50.982;11.022;2023-03-16T03:38:29;4.45;;;2.53;;
28836;SDS011;50669;50.982;11.022;2023-03-16T03:40:54;3.45;;;2.92;;
28836;SDS011;50669;50.982;11.022;2023-03-16T03:43:26;4.60;;;2.85;;
28836;SDS011;50669;50.982;11.022;2023-03-16T03:45:58;6.13;;;2.97;;
28836;SDS011;50669;50.982;11.022;2023-03-16T03:48:25;3.83;;;2.58;;
28836;SDS011;50669;50.982;11.022;2023-03-16T03:50:51;4.38;;;2.50;;
28836;SDS011;50669;50.982;11.022;2023-03-16T03:53:17;3.90;;;2.70;;
28836;SDS011;50669;50.982;11.022;2023-03-16T03:55:45;5.10;;;3.22;;
28836;SDS011;50669;50.982;11.022;2023-03-16T03:58:13;5.32;;;3.33;;
28836;SDS011;50669;50.982;11.022;2023-03-16T04:00:41;6.38;;;2.83;;
28836;SDS011;50669;50.982;11.022;2023-03-16T04:03:10;4.60;;;2.80;;
28836;SDS011;50669;50.982;11.022;2023-03-16T04:05:35;4.82;;;2.53;;
28836;SDS011;50669;50.982;11.022;2023-03-16T04:08:01;4.47;;;2.72;;
28836;SDS011;50669;50.982;11.022;2023-03-16T04:10:27;3.85;;;2.92;;
28836;SDS011;50669;50.982;11.022;2023-03-16T04:12:57;4.50;;;2.60;;
28836;SDS011;50669;50.982;11.022;2023-03-16T04:15:26;3.53;;;2.10;;
28836;SDS011;50669;50.982;11.022;2023-03-16T04:17:51;4.13;;;2.40;;
28836;SDS011;50669;50.982;11.022;2023-03-16T04:20:17;4.07;;;2.58;;
28836;SDS011;50669;50.982;11.022;2023-03-16T04:22:47;6.93;;;2.97;;
28836;SDS011;50669;50.982;11.022;2023-03-16T04:25:14;4.93;;;2.35;;
28836;SDS011;50669;50.982;11.022;2023-03-16T04:27:44;5.10;;;2.53;;
28836;SDS011;50669;50.982;11.022;2023-03-16T04:30:11;3.72;;;2.50;;
28836;SDS011;50669;50.982;11.022;2023-03-16T04:32:38;3.13;;;2.03;;
28836;SDS011;50669;50.982;11.022;2023-03-16T04:35:04;4.43;;;2.72;;
28836;SDS011;50669;50.982;11.022;2023-03-16T04:37:30;4.75;;;2.38;;
28836;SDS011;50669;50.982;11.022;2023-03-16T04:39:59;3.58;;;2.20;;
28836;SDS011;50669;50.982;11.022;2023-03-16T04:42:33;5.45;;;2.47;;
28836;SDS011;50669;50.982;11.022;2023-03-16T04:44:59;4.85;;;2.42;;
28836;SDS011;50669;50.982;11.022;2023-03-16T04:47:30;5.57;;;2.75;;
28836;SDS011;50669;50.982;11.022;2023-03-16T04:49:58;3.15;;;2.08;;
28836;SDS011;50669;50.982;11.022;2023-03-16T04:52:24;4.50;;;2.40;;
28836;SDS011;50669;50.982;11.022;2023-03-16T04:54:50;4.00;;;2.22;;
28836;SDS011;50669;50.982;11.022;2023-03-16T04:57:15;3.42;;;2.15;;
28836;SDS011;50669;50.982;11.022;2023-03-16T04:59:43;3.22;;;2.22;;
28836;SDS011;50669;50.982;11.022;2023-03-16T05:02:11;5.25;;;2.20;;
28836;SDS011;50669;50.982;11.022;2023-03-16T05:04:38;3.22;;;2.40;;
28836;SDS011;50669;50.982;11.022;2023-03-16T05:07:04;3.42;;;2.08;;
28836;SDS011;50669;50.982;11.022;2023-03-16T05:09:30;2.90;;;1.98;;
28836;SDS011;50669;50.982;11.022;2023-03-16T05:11:55;4.35;;;1.85;;
28836;SDS011;50669;50.982;11.022;2023-03-16T05:14:21;5.47;;;2.20;;
28836;SDS011;50669;50.982;11.022;2023-03-16T05:16:47;3.70;;;2.13;;
28836;SDS011;50669;50.982;11.022;2023-03-16T05:19:18;3.97;;;2.30;;
28836;SDS011;50669;50.982;11.022;2023-03-16T05:21:49;2.80;;;1.98;;
28836;SDS011;50669;50.982;11.022;2023-03-16T05:24:17;3.05;;;1.75;;
28836;SDS011;50669;50.982;11.022;2023-03-16T05:26:43;2.95;;;2.00;;
28836;SDS011;50669;50.982;11.022;2023-03-16T05:29:14;4.55;;;2.20;;
28836;SDS011;50669;50.982;11.022;2023-03-16T05:31:39;5.32;;;2.15;;
28836;SDS011;50669;50.982;11.022;2023-03-16T05:34:10;4.82;;;2.30;;
28836;SDS011;50669;50.982;11.022;2023-03-16T05:36:38;3.38;;;1.95;;
28836;SDS011;50669;50.982;11.022;2023-03-16T05:39:09;3.70;;;1.92;;
28836;SDS011;50669;50.982;11.022;2023-03-16T05:41:35;3.65;;;2.03;;
28836;SDS011;50669;50.982;11.022;2023-03-16T05:44:01;7.20;;;2.35;;
28836;SDS011;50669;50.982;11.022;2023-03-16T05:46:28;3.65;;;1.90;;
28836;SDS011;50669;50.982;11.022;2023-03-16T05:48:56;2.47;;;1.77;;
28836;SDS011;50669;50.982;11.022;2023-03-16T05:51:22;6.07;;;2.22;;
28836;SDS011;50669;50.982;11.022;2023-03-16T05:53:50;9.68;;;2.80;;
28836;SDS011;50669;50.982;11.022;2023-03-16T05:56:24;7.80;;;2.45;;
28836;SDS011;50669;50.982;11.022;2023-03-16T05:58:51;8.35;;;2.10;;
28836;SDS011;50669;50.982;11.022;2023-03-16T06:01:20;10.48;;;2.22;;
28836;SDS011;50669;50.982;11.022;2023-03-16T06:03:47;3.97;;;1.52;;
28836;SDS011;50669;50.982;11.022;2023-03-16T06:06:14;6.57;;;2.05;;
28836;SDS011;50669;50.982;11.022;2023-03-16T06:08:41;3.38;;;1.73;;
28836;SDS011;50669;50.982;11.022;2023-03-16T06:11:07;4.03;;;1.70;;
28836;SDS011;50669;50.982;11.022;2023-03-16T06:13:32;5.18;;;1.98;;
28836;SDS011;50669;50.982;11.022;2023-03-16T06:16:01;6.88;;;2.42;;
28836;SDS011;50669;50.982;11.022;2023-03-16T06:18:30;8.40;;;2.15;;
28836;SDS011;50669;50.982;11.022;2023-03-16T06:20:56;8.45;;;3.58;;
28836;SDS011;50669;50.982;11.022;2023-03-16T06:23:22;8.23;;;3.25;;
28836;SDS011;50669;50.982;11.022;2023-03-16T06:25:48;5.25;;;1.90;;
28836;SDS011;50669;50.982;11.022;2023-03-16T06:28:14;14.55;;;2.70;;
28836;SDS011;50669;50.982;11.022;2023-03-16T06:30:40;14.80;;;2.85;;
28836;SDS011;50669;50.982;11.022;2023-03-16T06:33:06;16.77;;;2.63;;
28836;SDS011;50669;50.982;11.022;2023-03-16T06:35:32;13.93;;;2.80;;
28836;SDS011;50669;50.982;11.022;2023-03-16T06:38:00;11.95;;;2.70;;
28836;SDS011;50669;50.982;11.022;2023-03-16T06:40:29;9.35;;;2.22;;
28836;SDS011;50669;50.982;11.022;2023-03-16T06:42:55;8.85;;;1.88;;
28836;SDS011;50669;50.982;11.022;2023-03-16T06:45:23;16.63;;;2.65;;
28836;SDS011;50669;50.982;11.022;2023-03-16T06:47:49;7.28;;;2.30;;
28836;SDS011;50669;50.982;11.022;2023-03-16T06:50:16;12.32;;;2.75;;
28836;SDS011;50669;50.982;11.022;2023-03-16T06:52:45;8.48;;;2.40;;
28836;SDS011;50669;50.982;11.022;2023-03-16T06:55:10;7.13;;;2.45;;
28836;SDS011;50669;50.982;11.022;2023-03-16T06:57:38;12.85;;;2.42;;
28836;SDS011;50669;50.982;11.022;2023-03-16T07:00:12;10.50;;;2.33;;
28836;SDS011;50669;50.982;11.022;2023-03-16T07:02:39;6.63;;;2.20;;
28836;SDS011;50669;50.982;11.022;2023-03-16T07:05:09;10.52;;;2.42;;
28836;SDS011;50669;50.982;11.022;2023-03-16T07:07:42;8.18;;;2.38;;
28836;SDS011;50669;50.982;11.022;2023-03-16T07:10:11;8.57;;;2.50;;
28836;SDS011;50669;50.982;11.022;2023-03-16T07:12:38;10.43;;;2.50;;
28836;SDS011;50669;50.982;11.022;2023-03-16T07:15:04;10.27;;;2.50;;
28836;SDS011;50669;50.982;11.022;2023-03-16T07:17:30;9.00;;;2.17;;
28836;SDS011;50669;50.982;11.022;2023-03-16T07:19:56;6.47;;;1.92;;
28836;SDS011;50669;50.982;11.022;2023-03-16T07:22:24;6.00;;;2.15;;
28836;SDS011;50669;50.982;11.022;2023-03-16T07:24:50;8.57;;;2.15;;
28836;SDS011;50669;50.982;11.022;2023-03-16T07:27:21;7.75;;;2.13;;
28836;SDS011;50669;50.982;11.022;2023-03-16T07:29:48;5.55;;;2.17;;
28836;SDS011;50669;50.982;11.022;2023-03-16T07:32:14;4.13;;;1.77;;
28836;SDS011;50669;50.982;11.022;2023-03-16T07:34:40;6.75;;;2.47;;
28836;SDS011;50669;50.982;11.022;2023-03-16T07:37:10;6.22;;;1.88;;
28836;SDS011;50669;50.982;11.022;2023-03-16T07:39:36;6.07;;;2.08;;
28836;SDS011;50669;50.982;11.022;2023-03-16T07:42:02;9.25;;;2.15;;
28836;SDS011;50669;50.982;11.022;2023-03-16T07:44:30;16.85;;;2.42;;
28836;SDS011;50669;50.982;11.022;2023-03-16T07:46:58;7.32;;;2.33;;
28836;SDS011;50669;50.982;11.022;2023-03-16T07:49:24;5.07;;;2.00;;
28836;SDS011;50669;50.982;11.022;2023-03-16T07:51:49;3.38;;;1.80;;
28836;SDS011;50669;50.982;11.022;2023-03-16T07:54:15;5.63;;;1.58;;
28836;SDS011;50669;50.982;11.022;2023-03-16T07:56:41;5.43;;;1.85;;
28836;SDS011;50669;50.982;11.022;2023-03-16T07:59:12;7.30;;;2.42;;
28836;SDS011;50669;50.982;11.022;2023-03-16T08:01:37;4.45;;;1.40;;
28836;SDS011;50669;50.982;11.022;2023-03-16T08:04:05;7.88;;;2.00;;
28836;SDS011;50669;50.982;11.022;2023-03-16T08:06:33;4.53;;;1.70;;
28836;SDS011;50669;50.982;11.022;2023-03-16T08:08:59;4.45;;;2.05;;
28836;SDS011;50669;50.982;11.022;2023-03-16T08:11:26;7.63;;;2.35;;
28836;SDS011;50669;50.982;11.022;2023-03-16T08:13:52;5.05;;;1.67;;
28836;SDS011;50669;50.982;11.022;2023-03-16T08:16:22;7.43;;;1.60;;
28836;SDS011;50669;50.982;11.022;2023-03-16T08:18:50;5.75;;;1.92;;
28836;SDS011;50669;50.982;11.022;2023-03-16T08:21:17;5.15;;;1.70;;
28836;SDS011;50669;50.982;11.022;2023-03-16T08:23:46;5.10;;;1.65;;
28836;SDS011;50669;50.982;11.022;2023-03-16T08:26:20;4.63;;;1.70;;
28836;SDS011;50669;50.982;11.022;2023-03-16T08:28:47;4.30;;;1.70;;
28836;SDS011;50669;50.982;11.022;2023-03-16T08:31:18;3.85;;;1.85;;
28836;SDS011;50669;50.982;11.022;2023-03-16T08:33:46;2.70;;;1.60;;
28836;SDS011;50669;50.982;11.022;2023-03-16T08:36:13;4.47;;;1.42;;
28836;SDS011;50669;50.982;11.022;2023-03-16T08:38:47;4.60;;;1.85;;
28836;SDS011;50669;50.982;11.022;2023-03-16T08:41:13;4.65;;;1.67;;
28836;SDS011;50669;50.982;11.022;2023-03-16T08:43:41;4.47;;;1.70;;
28836;SDS011;50669;50.982;11.022;2023-03-16T08:46:07;4.57;;;1.75;;
28836;SDS011;50669;50.982;11.022;2023-03-16T08:48:32;5.38;;;2.05;;
28836;SDS011;50669;50.982;11.022;2023-03-16T08:51:02;3.25;;;1.60;;
28836;SDS011;50669;50.982;11.022;2023-03-16T08:53:30;4.70;;;1.90;;
28836;SDS011;50669;50.982;11.022;2023-03-16T08:56:03;5.00;;;1.70;;
28836;SDS011;50669;50.982;11.022;2023-03-16T08:58:33;3.03;;;1.50;;
28836;SDS011;50669;50.982;11.022;2023-03-16T09:01:00;3.75;;;1.80;;
28836;SDS011;50669;50.982;11.022;2023-03-16T09:03:27;3.78;;;1.60;;
28836;SDS011;50669;50.982;11.022;2023-03-16T09:05:59;3.65;;;1.63;;
28836;SDS011;50669;50.982;11.022;2023-03-16T09:08:26;4.25;;;1.40;;
28836;SDS011;50669;50.982;11.022;2023-03-16T09:11:03;2.70;;;1.38;;
28836;SDS011;50669;50.982;11.022;2023-03-16T09:13:35;7.03;;;1.95;;
28836;SDS011;50669;50.982;11.022;2023-03-16T09:16:02;3.33;;;1.40;;
28836;SDS011;50669;50.982;11.022;2023-03-16T09:18:29;6.90;;;1.70;;
28836;SDS011;50669;50.982;11.022;2023-03-16T09:21:00;3.28;;;1.50;;
28836;SDS011;50669;50.982;11.022;2023-03-16T09:23:30;2.50;;;1.13;;
28836;SDS011;50669;50.982;11.022;2023-03-16T09:25:57;4.93;;;1.67;;
28836;SDS011;50669;50.982;11.022;2023-03-16T09:28:24;3.10;;;1.40;;
28836;SDS011;50669;50.982;11.022;2023-03-16T09:30:54;3.10;;;1.52;;
28836;SDS011;50669;50.982;11.022;2023-03-16T09:33:23;3.28;;;1.48;;
28836;SDS011;50669;50.982;11.022;2023-03-16T09:35:49;3.95;;;1.60;;
28836;SDS011;50669;50.982;11.022;2023-03-16T09:38:16;4.05;;;1.50;;
28836;SDS011;50669;50.982;11.022;2023-03-16T09:40:42;3.75;;;1.50;;
28836;SDS011;50669;50.982;11.022;2023-03-16T09:48:54;3.40;;;1.42;;
28836;SDS011;50669;50.982;11.022;2023-03-16T09:51:35;2.03;;;1.25;;
28836;SDS011;50669;50.982;11.022;2023-03-16T09:54:07;4.22;;;1.58;;
28836;SDS011;50669;50.982;11.022;2023-03-16T10:02:54;3.13;;;1.65;;
28836;SDS011;50669;50.982;11.022;2023-03-16T10:05:51;3.63;;;1.48;;
28836;SDS011;50669;50.982;11.022;2023-03-16T10:08:36;3.05;;;1.38;;
28836;SDS011;50669;50.982;11.022;2023-03-16T10:14:17;2.90;;;1.35;;
28836;SDS011;50669;50.982;11.022;2023-03-16T10:17:03;2.92;;;1.33;;
28836;SDS011;50669;50.982;11.022;2023-03-16T10:27:32;2.80;;;1.10;;
28836;SDS011;50669;50.982;11.022;2023-03-16T10:30:01;3.22;;;1.70;;
28836;SDS011;50669;50.982;11.022;2023-03-16T10:32:29;3.25;;;1.40;;
28836;SDS011;50669;50.982;11.022;2023-03-16T10:35:02;2.45;;;1.17;;
28836;SDS011;50669;50.982;11.022;2023-03-16T10:37:49;2.08;;;1.30;;
28836;SDS011;50669;50.982;11.022;2023-03-16T10:40:15;3.47;;;1.40;;
28836;SDS011;50669;50.982;11.022;2023-03-16T10:42:44;2.15;;;1.23;;
28836;SDS011;50669;50.982;11.022;2023-03-16T10:45:29;2.75;;;1.40;;
28836;SDS011;50669;50.982;11.022;2023-03-16T10:48:06;3.00;;;1.15;;
28836;SDS011;50669;50.982;11.022;2023-03-16T10:50:55;2.25;;;1.25;;
28836;SDS011;50669;50.982;11.022;2023-03-16T10:53:26;4.03;;;1.23;;
28836;SDS011;50669;50.982;11.022;2023-03-16T10:56:00;5.45;;;1.55;;
28836;SDS011;50669;50.982;11.022;2023-03-16T10:58:37;5.70;;;1.30;;
28836;SDS011;50669;50.982;11.022;2023-03-16T11:01:26;1.55;;;0.98;;
28836;SDS011;50669;50.982;11.022;2023-03-16T11:03:56;3.47;;;1.40;;
28836;SDS011;50669;50.982;11.022;2023-03-16T11:06:31;2.35;;;1.05;;
28836;SDS011;50669;50.982;11.022;2023-03-16T11:09:02;3.35;;;1.40;;
28836;SDS011;50669;50.982;11.022;2023-03-16T11:11:32;2.67;;;1.20;;
28836;SDS011;50669;50.982;11.022;2023-03-16T11:14:00;2.25;;;1.40;;
28836;SDS011;50669;50.982;11.022;2023-03-16T11:18:57;3.47;;;1.13;;
28836;SDS011;50669;50.982;11.022;2023-03-16T11:24:04;2.75;;;1.20;;
28836;SDS011;50669;50.982;11.022;2023-03-16T11:26:41;1.55;;;0.90;;
28836;SDS011;50669;50.982;11.022;2023-03-16T11:29:23;3.30;;;1.13;;
28836;SDS011;50669;50.982;11.022;2023-03-16T11:35:00;2.35;;;1.10;;
28836;SDS011;50669;50.982;11.022;2023-03-16T11:37:42;2.33;;;1.20;;
28836;SDS011;50669;50.982;11.022;2023-03-16T11:40:30;4.07;;;1.40;;
28836;SDS011;50669;50.982;11.022;2023-03-16T11:48:42;2.53;;;1.27;;
28836;SDS011;50669;50.982;11.022;2023-03-16T11:54:10;3.55;;;1.20;;
28836;SDS011;50669;50.982;11.022;2023-03-16T11:56:44;3.03;;;1.17;;
28836;SDS011;50669;50.982;11.022;2023-03-16T12:04:51;2.80;;;1.08;;
28836;SDS011;50669;50.982;11.022;2023-03-16T12:10:33;2.13;;;1.10;;
28836;SDS011;50669;50.982;11.022;2023-03-16T12:13:28;2.42;;;1.08;;
28836;SDS011;50669;50.982;11.022;2023-03-16T12:16:24;1.83;;;0.90;;
28836;SDS011;50669;50.982;11.022;2023-03-16T12:18:57;2.13;;;1.10;;
28836;SDS011;50669;50.982;11.022;2023-03-16T12:21:33;1.75;;;0.90;;
28836;SDS011;50669;50.982;11.022;2023-03-16T12:24:09;1.23;;;0.93;;
28836;SDS011;50669;50.982;11.022;2023-03-16T12:26:39;1.45;;;1.00;;
28836;SDS011;50669;50.982;11.022;2023-03-16T12:31:48;2.17;;;1.08;;
28836;SDS011;50669;50.982;11.022;2023-03-16T12:40:10;2.45;;;1.05;;
28836;SDS011;50669;50.982;11.022;2023-03-16T12:45:16;1.27;;;0.90;;
28836;SDS011;50669;50.982;11.022;2023-03-16T12:50:33;1.45;;;0.90;;
28836;SDS011;50669;50.982;11.022;2023-03-16T12:52:59;1.38;;;1.00;;
28836;SDS011;50669;50.982;11.022;2023-03-16T12:55:28;1.20;;;0.90;;
28836;SDS011;50669;50.982;11.022;2023-03-16T12:58:08;1.55;;;0.85;;
28836;SDS011;50669;50.982;11.022;2023-03-16T13:00:38;1.77;;;1.27;;
28836;SDS011;50669;50.982;11.022;2023-03-16T13:03:15;2.80;;;1.40;;
28836;SDS011;50669;50.982;11.022;2023-03-16T13:05:47;1.20;;;0.95;;
28836;SDS011;50669;50.982;11.022;2023-03-16T13:08:16;1.80;;;1.20;;
28836;SDS011;50669;50.982;11.022;2023-03-16T13:10:58;2.63;;;1.05;;
28836;SDS011;50669;50.982;11.022;2023-03-16T13:13:29;1.55;;;0.98;;
28836;SDS011;50669;50.982;11.022;2023-03-16T13:16:06;1.42;;;0.93;;
28836;SDS011;50669;50.982;11.022;2023-03-16T13:18:46;3.10;;;1.08;;
28836;SDS011;50669;50.982;11.022;2023-03-16T13:29:18;1.60;;;1.00;;
28836;SDS011;50669;50.982;11.022;2023-03-16T13:31:53;1.80;;;0.88;;
28836;SDS011;50669;50.982;11.022;2023-03-16T13:34:36;1.92;;;1.00;;
28836;SDS011;50669;50.982;11.022;2023-03-16T13:37:14;2.22;;;1.25;;
28836;SDS011;50669;50.982;11.022;2023-03-16T13:39:49;1.40;;;1.00;;
28836;SDS011;50669;50.982;11.022;2023-03-16T13:42:20;1.40;;;0.95;;
28836;SDS011;50669;50.982;11.022;2023-03-16T13:44:50;2.40;;;1.13;;
28836;SDS011;50669;50.982;11.022;2023-03-16T13:47:17;2.47;;;1.30;;
28836;SDS011;50669;50.982;11.022;2023-03-16T13:49:45;3.17;;;1.33;;
28836;SDS011;50669;50.982;11.022;2023-03-16T13:52:24;2.00;;;1.10;;
28836;SDS011;50669;50.982;11.022;2023-03-16T13:54:53;1.63;;;1.00;;
28836;SDS011;50669;50.982;11.022;2023-03-16T13:57:22;1.73;;;1.15;;
28836;SDS011;50669;50.982;11.022;2023-03-16T13:59:50;1.83;;;1.23;;
28836;SDS011;50669;50.982;11.022;2023-03-16T14:02:25;1.67;;;1.13;;
28836;SDS011;50669;50.982;11.022;2023-03-16T14:04:53;2.38;;;1.40;;
28836;SDS011;50669;50.982;11.022;2023-03-16T14:07:21;2.45;;;1.50;;
28836;SDS011;50669;50.982;11.022;2023-03-16T14:09:48;1.58;;;1.00;;
28836;SDS011;50669;50.982;11.022;2023-03-16T14:12:17;1.70;;;1.10;;
28836;SDS011;50669;50.982;11.022;2023-03-16T14:14:47;2.70;;;0.98;;
28836;SDS011;50669;50.982;11.022;2023-03-16T14:17:21;2.63;;;1.30;;
28836;SDS011;50669;50.982;11.022;2023-03-16T14:19:55;1.20;;;1.00;;
28836;SDS011;50669;50.982;11.022;2023-03-16T14:22:42;1.42;;;0.90;;
28836;SDS011;50669;50.982;11.022;2023-03-16T14:25:16;1.50;;;1.20;;
28836;SDS011;50669;50.982;11.022;2023-03-16T14:27:46;1.83;;;1.10;;
28836;SDS011;50669;50.982;11.022;2023-03-16T14:30:22;1.75;;;1.10;;
28836;SDS011;50669;50.982;11.022;2023-03-16T14:32:55;2.55;;;1.23;;
28836;SDS011;50669;50.982;11.022;2023-03-16T14:35:27;1.73;;;1.30;;
28836;SDS011;50669;50.982;11.022;2023-03-16T14:37:54;2.15;;;1.15;;
28836;SDS011;50669;50.982;11.022;2023-03-16T14:42:55;2.05;;;1.30;;
28836;SDS011;50669;50.982;11.022;2023-03-16T14:48:17;1.90;;;1.17;;
28836;SDS011;50669;50.982;11.022;2023-03-16T14:50:50;2.78;;;1.38;;
28836;SDS011;50669;50.982;11.022;2023-03-16T14:55:44;2.15;;;1.65;;
28836;SDS011;50669;50.982;11.022;2023-03-16T14:58:12;1.88;;;1.30;;
28836;SDS011;50669;50.982;11.022;2023-03-16T15:00:38;1.90;;;1.40;;
28836;SDS011;50669;50.982;11.022;2023-03-16T15:03:06;1.27;;;1.10;;
28836;SDS011;50669;50.982;11.022;2023-03-16T15:05:39;1.85;;;1.20;;
28836;SDS011;50669;50.982;11.022;2023-03-16T15:08:14;2.40;;;1.40;;
28836;SDS011;50669;50.982;11.022;2023-03-16T15:10:43;1.75;;;1.23;;
28836;SDS011;50669;50.982;11.022;2023-03-16T15:13:17;2.58;;;1.50;;
28836;SDS011;50669;50.982;11.022;2023-03-16T15:16:16;3.08;;;1.40;;
28836;SDS011;50669;50.982;11.022;2023-03-16T15:18:46;2.22;;;1.50;;
28836;SDS011;50669;50.982;11.022;2023-03-16T15:21:12;3.05;;;1.50;;
28836;SDS011;50669;50.982;11.022;2023-03-16T15:23:40;2.30;;;1.70;;
28836;SDS011;50669;50.982;11.022;2023-03-16T15:26:08;3.63;;;1.88;;
28836;SDS011;50669;50.982;11.022;2023-03-16T15:28:35;2.00;;;1.67;;
28836;SDS011;50669;50.982;11.022;2023-03-16T15:31:01;2.85;;;1.88;;
28836;SDS011;50669;50.982;11.022;2023-03-16T15:33:28;2.08;;;1.70;;
28836;SDS011;50669;50.982;11.022;2023-03-16T15:35:55;2.03;;;1.67;;
28836;SDS011;50669;50.982;11.022;2023-03-16T15:40:51;2.38;;;1.52;;
28836;SDS011;50669;50.982;11.022;2023-03-16T15:43:18;3.83;;;1.83;;
28836;SDS011;50669;50.982;11.022;2023-03-16T15:45:46;2.80;;;2.00;;
28836;SDS011;50669;50.982;11.022;2023-03-16T15:48:13;2.55;;;2.33;;
28836;SDS011;50669;50.982;11.022;2023-03-16T15:50:41;4.03;;;2.25;;
28836;SDS011;50669;50.982;11.022;2023-03-16T15:53:18;3.05;;;2.33;;
28836;SDS011;50669;50.982;11.022;2023-03-16T15:55:51;3.28;;;2.25;;
28836;SDS011;50669;50.982;11.022;2023-03-16T15:58:21;2.47;;;1.98;;
28836;SDS011;50669;50.982;11.022;2023-03-16T16:00:49;2.42;;;1.80;;
28836;SDS011;50669;50.982;11.022;2023-03-16T16:03:21;3.00;;;2.00;;
28836;SDS011;50669;50.982;11.022;2023-03-16T16:05:50;3.33;;;2.17;;
28836;SDS011;50669;50.982;11.022;2023-03-16T16:08:16;2.58;;;2.15;;
28836;SDS011;50669;50.982;11.022;2023-03-16T16:10:42;3.63;;;2.42;;
28836;SDS011;50669;50.982;11.022;2023-03-16T16:13:18;2.85;;;2.30;;
28836;SDS011;50669;50.982;11.022;2023-03-16T16:15:47;3.08;;;2.20;;
28836;SDS011;50669;50.982;11.022;2023-03-16T16:18:32;3.00;;;2.08;;
28836;SDS011;50669;50.982;11.022;2023-03-16T16:21:01;3.42;;;2.40;;